createdAt,value
2019-04-27T00:01:56.943Z,39.02
2019-04-27T00:04:33.331Z,37.58
2019-04-27T00:07:07.112Z,38.96
2019-04-27T00:09:50.205Z,39.06
2019-04-27T00:12:22.423Z,39.34
2019-04-27T00:14:54.448Z,39.74
2019-04-27T00:17:43.535Z,39.74
2019-04-27T00:20:13.131Z,39.44
2019-04-27T00:22:48.209Z,39.57
2019-04-27T00:25:19.753Z,41.78
2019-04-27T00:27:51.289Z,41.93
2019-04-27T00:30:23.462Z,41.88
2019-04-27T00:32:55.339Z,41.15
2019-04-27T00:35:31.625Z,40.64
2019-04-27T00:38:10.783Z,40.88
2019-04-27T00:40:46.896Z,40.78
2019-04-27T00:43:18.551Z,40.32
2019-04-27T00:45:50.381Z,41.51
2019-04-27T00:48:23.277Z,42.14
2019-04-27T00:50:55.098Z,42.70
2019-04-27T00:53:26.644Z,41.70
2019-04-27T00:56:03.934Z,42.49
2019-04-27T00:58:49.068Z,42.80
2019-04-27T01:01:31.062Z,43.17
2019-04-27T01:04:04.404Z,42.83
2019-04-27T01:06:36.091Z,43.15
2019-04-27T01:09:10.913Z,43.79
2019-04-27T01:11:43.545Z,43.90
2019-04-27T01:14:15.078Z,43.98
2019-04-27T01:16:46.683Z,43.88
2019-04-27T01:19:19.086Z,43.96
2019-04-27T01:21:50.775Z,44.01
2019-04-27T01:24:22.394Z,47.05
2019-04-27T01:27:10.843Z,49.14
2019-04-27T01:29:42.623Z,49.55
2019-04-27T01:32:15.845Z,49.63
2019-04-27T01:34:49.431Z,51.78
2019-04-27T01:37:21.688Z,53.99
2019-04-27T01:39:54.138Z,55.08
2019-04-27T01:42:25.717Z,56.30
2019-04-27T01:44:57.271Z,56.10
2019-04-27T01:47:29.033Z,54.12
2019-04-27T01:50:00.513Z,53.08
2019-04-27T01:52:32.280Z,52.08
2019-04-27T01:55:04.098Z,51.98
2019-04-27T01:57:35.680Z,51.54
2019-04-27T02:00:19.354Z,51.40
2019-04-27T02:02:52.710Z,51.15
2019-04-27T02:05:40.811Z,54.48
2019-04-27T02:08:12.524Z,54.86
2019-04-27T02:10:44.281Z,52.59
2019-04-27T02:13:16.002Z,53.23
2019-04-27T02:15:48.690Z,53.08
2019-04-27T02:18:20.541Z,52.44
2019-04-27T02:20:55.547Z,52.23
2019-04-27T02:23:26.968Z,56.54
2019-04-27T02:25:58.730Z,53.38
2019-04-27T02:28:35.300Z,55.07
2019-04-27T02:31:11.514Z,57.76
2019-04-27T02:33:50.044Z,55.74
2019-04-27T02:36:23.208Z,54.42
2019-04-27T02:38:54.813Z,53.56
2019-04-27T02:41:29.605Z,53.17
2019-04-27T02:44:11.405Z,52.97
2019-04-27T02:46:43.036Z,53.46
2019-04-27T02:49:14.484Z,53.32
2019-04-27T02:51:59.308Z,53.10
2019-04-27T02:54:30.382Z,52.71
2019-04-27T02:57:01.971Z,52.54
2019-04-27T02:59:33.394Z,51.56
2019-04-27T03:02:06.856Z,52.36
2019-04-27T03:04:39.907Z,52.54
2019-04-27T03:07:11.726Z,51.96
2019-04-27T03:09:43.292Z,51.53
2019-04-27T03:12:16.417Z,51.12
2019-04-27T03:14:52.114Z,51.29
2019-04-27T03:17:40.667Z,51.46
2019-04-27T03:20:13.785Z,50.71
2019-04-27T03:22:49.500Z,51.58
2019-04-27T03:25:22.251Z,50.27
2019-04-27T03:28:00.234Z,50.09
2019-04-27T03:30:35.809Z,48.99
2019-04-27T03:33:05.470Z,49.03
2019-04-27T03:35:38.623Z,49.07
2019-04-27T03:38:12.557Z,48.83
2019-04-27T03:40:43.879Z,49.68
2019-04-27T03:43:17.035Z,49.21
2019-04-27T03:45:52.020Z,49.00
2019-04-27T03:48:22.449Z,48.83
2019-04-27T03:51:10.680Z,48.45
2019-04-27T03:53:43.700Z,48.86
2019-04-27T03:56:25.548Z,55.48
2019-04-27T03:59:04.315Z,55.48
2019-04-27T04:01:35.827Z,56.57
2019-04-27T04:04:10.109Z,56.37
2019-04-27T04:06:41.004Z,55.69
2019-04-27T04:09:13.330Z,55.71
2019-04-27T04:11:46.383Z,55.62
2019-04-27T04:14:20.239Z,55.54
2019-04-27T04:17:03.176Z,54.97
2019-04-27T04:19:48.888Z,54.92
2019-04-27T04:22:10.269Z,55.37
2019-04-27T04:24:41.513Z,55.48
2019-04-27T04:27:13.110Z,55.14
2019-04-27T04:29:44.795Z,55.08
2019-04-27T04:32:16.345Z,55.58
2019-04-27T04:34:50.104Z,55.27
2019-04-27T04:37:21.169Z,55.87
2019-04-27T04:39:53.688Z,55.79
2019-04-27T04:42:27.041Z,55.82
2019-04-27T04:45:00.667Z,55.33
2019-04-27T04:47:36.607Z,55.50
2019-04-27T04:50:14.592Z,55.28
2019-04-27T04:52:42.427Z,53.75
2019-04-27T04:55:15.272Z,53.96
2019-04-27T04:57:49.113Z,56.32
2019-04-27T05:00:20.458Z,55.12
2019-04-27T05:02:52.303Z,55.19
2019-04-27T05:05:23.696Z,56.23
2019-04-27T05:07:54.998Z,53.29
2019-04-27T05:10:26.532Z,52.34
2019-04-27T05:12:59.054Z,51.34
2019-04-27T05:15:31.072Z,46.99
2019-04-27T05:18:02.446Z,49.75
2019-04-27T05:20:41.621Z,48.29
2019-04-27T05:23:13.219Z,50.30
2019-04-27T05:25:44.824Z,52.07
2019-04-27T05:28:16.210Z,49.30
2019-04-27T05:30:49.169Z,48.36
2019-04-27T05:33:20.705Z,50.17
2019-04-27T05:35:52.028Z,49.88
2019-04-27T05:38:23.291Z,48.27
2019-04-27T05:40:54.648Z,48.64
2019-04-27T05:43:31.754Z,48.51
2019-04-27T05:46:21.627Z,49.49
2019-04-27T05:48:53.106Z,50.18
2019-04-27T05:51:24.498Z,50.77
2019-04-27T05:53:56.005Z,50.33
2019-04-27T05:56:28.904Z,51.11
2019-04-27T05:59:00.622Z,50.70
2019-04-27T06:01:33.294Z,48.30
2019-04-27T06:04:05.940Z,48.58
2019-04-27T06:06:39.290Z,50.35
2019-04-27T06:09:10.853Z,48.47
2019-04-27T06:11:42.514Z,50.02
2019-04-27T06:14:14.182Z,52.55
2019-04-27T06:16:45.715Z,47.14
2019-04-27T06:19:19.218Z,46.86
2019-04-27T06:21:50.459Z,42.26
2019-04-27T06:24:22.093Z,40.45
2019-04-27T06:26:53.392Z,41.53
2019-04-27T06:29:24.787Z,38.61
2019-04-27T06:31:56.159Z,42.56
2019-04-27T06:34:28.745Z,43.41
2019-04-27T06:37:00.737Z,34.69
2019-04-27T06:39:32.219Z,34.05
2019-04-27T06:42:16.053Z,34.29
2019-04-27T06:44:36.875Z,32.75
2019-04-27T06:47:09.119Z,32.93
2019-04-27T06:49:40.737Z,33.16
2019-04-27T06:52:12.248Z,38.13
2019-04-27T06:54:43.586Z,39.43
2019-04-27T06:57:14.989Z,37.89
2019-04-27T06:59:46.530Z,32.87
2019-04-27T07:02:19.007Z,30.68
2019-04-27T07:04:50.784Z,31.50
2019-04-27T07:07:22.199Z,31.29
2019-04-27T07:09:53.694Z,31.18
2019-04-27T07:12:25.176Z,30.47
2019-04-27T07:14:56.688Z,28.91
2019-04-27T07:17:28.999Z,28.96
2019-04-27T07:20:00.984Z,28.74
2019-04-27T07:22:32.847Z,27.37
2019-04-27T07:25:05.670Z,27.37
2019-04-27T07:27:37.084Z,27.49
2019-04-27T07:30:11.803Z,27.63
2019-04-27T07:32:42.011Z,28.03
2019-04-27T07:35:15.844Z,26.15
2019-04-27T07:37:48.823Z,25.39
2019-04-27T07:40:20.479Z,25.81
2019-04-27T07:42:53.675Z,25.07
2019-04-27T07:45:35.673Z,24.56
2019-04-27T07:48:08.966Z,24.87
2019-04-27T07:50:41.240Z,24.75
2019-04-27T07:53:16.384Z,24.19
2019-04-27T07:55:49.430Z,25.14
2019-04-27T07:58:22.210Z,25.19
2019-04-27T08:00:54.135Z,25.05
2019-04-27T08:03:25.824Z,25.24
2019-04-27T08:05:58.803Z,25.79
2019-04-27T08:08:30.716Z,24.74
2019-04-27T08:11:05.070Z,24.74
2019-04-27T08:13:36.580Z,24.63
2019-04-27T08:16:09.447Z,24.51
2019-04-27T08:18:40.902Z,24.08
2019-04-27T08:21:14.391Z,24.66
2019-04-27T08:23:45.800Z,25.77
2019-04-27T08:26:22.021Z,26.12
2019-04-27T08:29:08.612Z,26.45
2019-04-27T08:31:42.473Z,27.02
2019-04-27T08:34:31.790Z,27.20
2019-04-27T08:37:04.213Z,26.98
2019-04-27T08:39:35.603Z,27.32
2019-04-27T08:42:09.383Z,27.49
2019-04-27T08:44:40.712Z,27.30
2019-04-27T08:47:13.578Z,27.69
2019-04-27T08:49:46.635Z,27.67
2019-04-27T08:52:19.410Z,28.36
2019-04-27T08:54:51.150Z,27.96
2019-04-27T08:57:23.700Z,28.21
2019-04-27T08:59:55.508Z,28.62
2019-04-27T09:02:39.714Z,28.54
2019-04-27T09:05:00.286Z,28.77
2019-04-27T09:07:36.441Z,29.03
2019-04-27T09:10:26.536Z,29.15
2019-04-27T09:13:08.948Z,28.67
2019-04-27T09:15:42.255Z,29.19
2019-04-27T09:18:16.515Z,28.76
2019-04-27T09:20:49.745Z,28.29
2019-04-27T09:23:21.205Z,28.81
2019-04-27T09:25:52.507Z,28.21
2019-04-27T09:28:24.070Z,27.73
2019-04-27T09:30:55.753Z,27.81
2019-04-27T09:33:27.205Z,27.67
2019-04-27T09:35:58.604Z,28.37
2019-04-27T09:38:30.213Z,28.80
2019-04-27T09:41:01.674Z,27.85
2019-04-27T09:43:34.058Z,28.19
2019-04-27T09:46:05.923Z,28.68
2019-04-27T09:48:37.444Z,28.05
2019-04-27T09:51:08.935Z,28.06
2019-04-27T09:53:41.499Z,28.37
2019-04-27T09:56:16.383Z,28.62
2019-04-27T09:58:47.954Z,28.95
2019-04-27T10:01:19.451Z,28.16
2019-04-27T10:03:52.499Z,28.04
2019-04-27T10:06:24.263Z,28.19
2019-04-27T10:08:57.751Z,28.47
2019-04-27T10:11:29.590Z,28.37
2019-04-27T10:14:01.264Z,28.23
2019-04-27T10:16:33.110Z,28.63
2019-04-27T10:19:04.815Z,29.81
2019-04-27T10:21:37.530Z,28.91
2019-04-27T10:24:10.250Z,29.29
2019-04-27T10:26:43.814Z,30.13
2019-04-27T10:29:16.191Z,30.28
2019-04-27T10:31:48.285Z,29.30
2019-04-27T10:34:20.968Z,29.26
2019-04-27T10:36:52.586Z,29.43
2019-04-27T10:39:27.422Z,29.22
2019-04-27T10:41:58.256Z,29.16
2019-04-27T10:44:29.948Z,29.40
2019-04-27T10:47:01.565Z,29.10
2019-04-27T10:49:33.370Z,28.67
2019-04-27T10:52:05.912Z,28.81
2019-04-27T10:54:37.595Z,29.20
2019-04-27T10:57:09.011Z,28.50
2019-04-27T10:59:40.550Z,28.74
2019-04-27T11:02:12.003Z,28.47
2019-04-27T11:04:47.631Z,28.48
2019-04-27T11:07:23.481Z,28.82
2019-04-27T11:09:54.913Z,27.96
2019-04-27T11:12:26.359Z,28.54
2019-04-27T11:14:57.885Z,28.03
2019-04-27T11:17:29.420Z,28.82
2019-04-27T11:20:02.781Z,28.69
2019-04-27T11:22:36.187Z,28.41
2019-04-27T11:25:08.796Z,27.87
2019-04-27T11:27:40.253Z,28.46
2019-04-27T11:30:13.489Z,27.78
2019-04-27T11:32:45.103Z,28.50
2019-04-27T11:35:21.248Z,27.67
2019-04-27T11:37:55.678Z,27.88
2019-04-27T11:40:28.944Z,27.75
2019-04-27T11:43:00.463Z,27.45
2019-04-27T11:45:33.001Z,27.48
2019-04-27T11:48:05.801Z,27.69
2019-04-27T11:50:37.453Z,27.91
2019-04-27T11:53:19.822Z,28.00
2019-04-27T11:55:43.128Z,27.88
2019-04-27T11:58:16.389Z,27.72
2019-04-27T12:00:49.622Z,27.21
2019-04-27T12:03:21.381Z,26.97
2019-04-27T12:05:52.823Z,27.07
2019-04-27T12:08:24.361Z,26.99
2019-04-27T12:10:55.850Z,26.87
2019-04-27T12:13:28.004Z,27.02
2019-04-27T12:15:59.450Z,26.56
2019-04-27T12:18:31.014Z,26.46
2019-04-27T12:21:02.548Z,26.46
2019-04-27T12:23:37.062Z,26.75
2019-04-27T12:26:08.558Z,26.73
2019-04-27T12:28:41.878Z,26.79
2019-04-27T12:31:19.360Z,25.39
2019-04-27T12:33:50.939Z,25.86
2019-04-27T12:36:22.429Z,25.91
2019-04-27T12:38:56.613Z,26.22
2019-04-27T12:41:29.303Z,26.39
2019-04-27T12:44:00.768Z,26.44
2019-04-27T12:46:32.169Z,26.30
2019-04-27T12:49:03.700Z,26.10
2019-04-27T12:51:35.589Z,26.52
2019-04-27T12:54:10.077Z,26.27
2019-04-27T12:56:45.920Z,25.77
2019-04-27T12:59:19.079Z,25.73
2019-04-27T13:01:50.594Z,25.63
2019-04-27T13:04:22.222Z,25.65
2019-04-27T13:06:55.845Z,25.80
2019-04-27T13:09:27.338Z,25.78
2019-04-27T13:12:00.462Z,25.69
2019-04-27T13:14:31.972Z,25.13
2019-04-27T13:17:06.275Z,25.58
2019-04-27T13:19:37.879Z,25.97
2019-04-27T13:22:09.662Z,25.77
2019-04-27T13:24:41.021Z,25.76
2019-04-27T13:27:12.500Z,25.37
2019-04-27T13:29:43.972Z,25.40
2019-04-27T13:32:16.428Z,25.51
2019-04-27T13:34:47.888Z,25.32
2019-04-27T13:37:34.103Z,25.26
2019-04-27T13:40:09.562Z,25.63
2019-04-27T13:42:44.039Z,25.67
2019-04-27T13:45:32.229Z,25.74
2019-04-27T13:48:11.250Z,26.00
2019-04-27T13:50:50.654Z,25.78
2019-04-27T13:53:22.210Z,25.63
2019-04-27T13:55:53.770Z,25.48
2019-04-27T13:58:25.523Z,25.80
2019-04-27T14:00:56.956Z,25.43
2019-04-27T14:03:28.520Z,25.59
2019-04-27T14:06:01.103Z,25.89
2019-04-27T14:08:32.856Z,25.73
2019-04-27T14:11:04.547Z,26.12
2019-04-27T14:13:36.091Z,26.00
2019-04-27T14:16:08.661Z,25.86
2019-04-27T14:18:40.336Z,26.04
2019-04-27T14:21:11.899Z,25.96
2019-04-27T14:23:43.510Z,26.15
2019-04-27T14:26:14.895Z,25.76
2019-04-27T14:28:48.074Z,25.62
2019-04-27T14:31:20.842Z,25.73
2019-04-27T14:33:53.397Z,25.83
2019-04-27T14:36:24.778Z,25.77
2019-04-27T14:38:56.325Z,26.27
2019-04-27T14:41:28.210Z,26.43
2019-04-27T14:44:08.142Z,26.04
2019-04-27T14:46:33.171Z,26.42
2019-04-27T14:49:04.604Z,26.46
2019-04-27T14:51:36.099Z,26.66
2019-04-27T14:54:09.292Z,26.61
2019-04-27T14:56:48.765Z,26.20
2019-04-27T14:59:21.571Z,26.28
2019-04-27T15:01:54.147Z,26.25
2019-04-27T15:04:27.116Z,26.10
2019-04-27T15:06:59.143Z,26.62
2019-04-27T15:09:30.811Z,26.67
2019-04-27T15:12:02.318Z,26.44
2019-04-27T15:14:33.921Z,26.59
2019-04-27T15:17:06.830Z,26.57
2019-04-27T15:19:40.329Z,26.28
2019-04-27T15:22:19.741Z,26.89
2019-04-27T15:24:48.960Z,27.74
2019-04-27T15:27:21.304Z,27.38
2019-04-27T15:29:55.795Z,27.48
2019-04-27T15:32:33.541Z,27.60
2019-04-27T15:35:09.793Z,27.83
2019-04-27T15:37:43.261Z,27.46
2019-04-27T15:40:31.910Z,27.75
2019-04-27T15:43:04.928Z,28.09
2019-04-27T15:45:38.927Z,28.17
2019-04-27T15:48:10.437Z,28.25
2019-04-27T15:50:43.622Z,28.33
2019-04-27T15:53:15.083Z,28.36
2019-04-27T15:55:46.397Z,28.38
2019-04-27T15:58:24.991Z,28.50
2019-04-27T16:01:02.397Z,28.84
2019-04-27T16:03:32.940Z,28.82
2019-04-27T16:06:08.133Z,29.01
2019-04-27T16:08:45.123Z,29.20
2019-04-27T16:11:16.401Z,29.44
2019-04-27T16:13:46.269Z,29.69
2019-04-27T16:16:19.402Z,29.64
2019-04-27T16:18:53.520Z,29.82
2019-04-27T16:21:25.196Z,30.27
2019-04-27T16:23:58.183Z,30.41
2019-04-27T16:26:29.706Z,30.50
2019-04-27T16:29:01.130Z,30.81
2019-04-27T16:31:34.729Z,30.79
2019-04-27T16:34:05.941Z,31.10
2019-04-27T16:36:43.433Z,31.09
2019-04-27T16:39:10.819Z,31.49
2019-04-27T16:41:43.886Z,31.57
2019-04-27T16:44:15.559Z,31.79
2019-04-27T16:46:48.590Z,31.89
2019-04-27T16:49:20.893Z,31.80
2019-04-27T16:51:53.374Z,32.04
2019-04-27T16:54:24.794Z,32.12
2019-04-27T16:57:03.232Z,32.28
2019-04-27T16:59:43.287Z,32.37
2019-04-27T17:02:02.942Z,32.33
2019-04-27T17:04:34.514Z,32.50
2019-04-27T17:07:05.984Z,32.41
2019-04-27T17:09:44.638Z,32.59
2019-04-27T17:12:10.628Z,32.72
2019-04-27T17:14:49.477Z,32.84
2019-04-27T17:17:42.709Z,33.14
2019-04-27T17:20:19.641Z,33.16
2019-04-27T17:22:50.253Z,33.17
2019-04-27T17:25:23.287Z,33.45
2019-04-27T17:27:57.750Z,33.91
2019-04-27T17:30:32.473Z,33.94
2019-04-27T17:33:14.559Z,33.89
2019-04-27T17:35:43.817Z,34.11
2019-04-27T17:38:16.477Z,34.34
2019-04-27T17:40:51.790Z,34.41
2019-04-27T17:43:22.884Z,34.56
2019-04-27T17:45:54.357Z,34.82
2019-04-27T17:48:25.997Z,35.02
2019-04-27T17:51:02.566Z,35.07
2019-04-27T17:53:33.096Z,34.99
2019-04-27T17:56:05.938Z,35.13
2019-04-27T17:58:39.695Z,35.15
2019-04-27T18:01:18.143Z,35.32
2019-04-27T18:03:44.433Z,35.33
2019-04-27T18:06:15.871Z,35.38
2019-04-27T18:08:48.584Z,35.51
2019-04-27T18:11:21.595Z,35.47
2019-04-27T18:13:55.819Z,35.58
2019-04-27T18:16:30.451Z,35.42
2019-04-27T18:19:07.821Z,35.59
2019-04-27T18:21:38.642Z,35.61
2019-04-27T18:24:15.298Z,35.72
2019-04-27T18:26:56.469Z,35.83
2019-04-27T18:29:29.366Z,35.84
2019-04-27T18:31:58.274Z,35.83
2019-04-27T18:34:29.833Z,35.99
2019-04-27T18:37:04.322Z,36.02
2019-04-27T18:39:38.491Z,36.18
2019-04-27T18:42:10.721Z,36.17
2019-04-27T18:44:42.274Z,36.15
2019-04-27T18:47:13.671Z,36.33
2019-04-27T18:50:07.363Z,36.28
2019-04-27T18:52:50.037Z,36.23
2019-04-27T18:55:21.061Z,36.39
2019-04-27T18:57:54.472Z,36.37
2019-04-27T19:00:25.853Z,36.56
2019-04-27T19:02:58.449Z,36.57
2019-04-27T19:05:39.962Z,36.77
2019-04-27T19:08:03.499Z,36.91
2019-04-27T19:10:35.982Z,37.13
2019-04-27T19:13:08.820Z,37.10
2019-04-27T19:15:40.317Z,37.20
2019-04-27T19:18:11.986Z,37.21
2019-04-27T19:20:43.495Z,37.21
2019-04-27T19:23:15.205Z,37.30
2019-04-27T19:26:06.482Z,37.32
2019-04-27T19:28:39.640Z,37.37
2019-04-27T19:31:15.587Z,37.49
2019-04-27T19:33:48.137Z,37.56
2019-04-27T19:36:19.642Z,37.57
2019-04-27T19:38:51.244Z,37.67
2019-04-27T19:41:22.902Z,37.71
2019-04-27T19:43:54.445Z,37.96
2019-04-27T19:46:26.041Z,37.77
2019-04-27T19:48:59.051Z,37.89
2019-04-27T19:51:32.845Z,37.71
2019-04-27T19:54:04.368Z,37.69
2019-04-27T19:56:38.384Z,37.73
2019-04-27T19:59:14.432Z,37.75
2019-04-27T20:01:48.097Z,37.78
2019-04-27T20:04:27.292Z,37.77
2019-04-27T20:06:59.086Z,37.79
2019-04-27T20:09:45.912Z,37.86
2019-04-27T20:12:17.391Z,38.13
2019-04-27T20:14:57.899Z,37.95
2019-04-27T20:17:31.427Z,38.32
2019-04-27T20:20:03.762Z,38.25
2019-04-27T20:22:35.588Z,38.14
2019-04-27T20:25:07.510Z,38.08
2019-04-27T20:27:46.729Z,38.12
2019-04-27T20:30:13.466Z,38.32
2019-04-27T20:32:47.594Z,38.42
2019-04-27T20:35:18.977Z,38.51
2019-04-27T20:37:51.880Z,38.34
2019-04-27T20:40:23.592Z,38.40
2019-04-27T20:42:55.242Z,38.30
2019-04-27T20:45:26.727Z,38.09
2019-04-27T20:48:01.035Z,38.44
2019-04-27T20:50:32.926Z,37.98
2019-04-27T20:53:10.650Z,38.01
2019-04-27T20:58:31.527Z,37.09
2019-04-27T21:01:03.283Z,36.83
2019-04-27T21:03:36.402Z,36.69
2019-04-27T21:06:24.600Z,36.55
2019-04-27T21:08:56.180Z,36.51
2019-04-27T21:11:30.859Z,36.60
2019-04-27T21:14:02.389Z,36.49
2019-04-27T21:16:33.817Z,36.05
2019-04-27T21:19:05.222Z,35.67
2019-04-27T21:21:37.987Z,35.33
2019-04-27T21:24:09.518Z,35.60
2019-04-27T21:26:41.976Z,35.26
2019-04-27T21:29:13.643Z,35.20
2019-04-27T21:31:45.120Z,35.29
2019-04-27T21:34:16.743Z,35.32
2019-04-27T21:36:48.291Z,35.19
2019-04-27T21:39:21.702Z,35.32
2019-04-27T21:41:53.264Z,35.51
2019-04-27T21:44:24.784Z,35.62
2019-04-27T21:46:56.331Z,35.59
2019-04-27T21:49:28.839Z,35.92
2019-04-27T21:52:03.888Z,36.01
2019-04-27T21:54:37.038Z,36.05
2019-04-27T21:57:08.487Z,35.95
2019-04-27T21:59:39.944Z,36.04
2019-04-27T22:02:12.411Z,36.00
2019-04-27T22:04:43.964Z,35.99
2019-04-27T22:07:15.527Z,36.07
2019-04-27T22:09:47.186Z,35.82
2019-04-27T22:12:21.319Z,36.05
2019-04-27T22:14:53.192Z,36.09
2019-04-27T22:17:24.662Z,36.09
2019-04-27T22:19:57.046Z,36.20
2019-04-27T22:22:31.422Z,36.31
2019-04-27T22:25:07.935Z,36.07
2019-04-27T22:27:41.174Z,36.14
2019-04-27T22:30:12.962Z,36.19
2019-04-27T22:32:44.495Z,36.00
2019-04-27T22:35:15.855Z,36.00
2019-04-27T22:37:47.352Z,36.16
2019-04-27T22:40:36.570Z,35.63
2019-04-27T22:43:09.736Z,35.50
2019-04-27T22:45:42.933Z,35.16
2019-04-27T22:48:14.349Z,35.54
2019-04-27T22:50:45.923Z,35.87
2019-04-27T22:53:17.609Z,35.90
2019-04-27T22:56:07.161Z,36.68
2019-04-27T22:58:40.694Z,36.41
2019-04-27T23:01:30.873Z,36.79
2019-04-27T23:04:04.165Z,37.21
2019-04-27T23:06:35.664Z,37.13
2019-04-27T23:09:07.414Z,36.97
2019-04-27T23:11:41.522Z,37.71
2019-04-27T23:14:13.080Z,36.98
2019-04-27T23:16:49.277Z,37.25
2019-04-27T23:19:21.057Z,36.98
2019-04-27T23:21:53.201Z,36.13
2019-04-27T23:24:24.813Z,35.85
2019-04-27T23:26:56.506Z,35.24
2019-04-27T23:29:28.099Z,35.06
2019-04-27T23:32:07.333Z,35.00
2019-04-27T23:34:38.878Z,36.13
2019-04-27T23:37:10.336Z,35.96
2019-04-27T23:39:41.751Z,36.40
2019-04-27T23:42:13.211Z,35.88
2019-04-27T23:44:44.730Z,36.58
2019-04-27T23:47:16.325Z,35.82
2019-04-27T23:49:47.848Z,36.31
2019-04-27T23:52:21.195Z,35.92
2019-04-27T23:54:52.685Z,35.88
2019-04-27T23:57:24.177Z,35.30
2019-04-27T23:59:55.720Z,35.66
